Time;durP1;ratioP1;P1;durP2;ratioP2;P2;SDS_P1;SDS_P2;PMS_P1;PMS_P2;Temp;Humidity;BMP_temperature;BMP_pressure;BME280_temperature;BME280_humidity;BME280_pressure;Samples;Min_cycle;Max_cycle;Signal;HPM_P1;HPM_P2
2023/04/22 00:00:01;;;;;;;2.05;0.80;;;15.50;56.20;;;;;;2182639;59;21007;-71
2023/04/22 00:02:28;;;;;;;2.20;1.00;;;15.50;56.20;;;;;;2395773;57;21072;-72
2023/04/22 00:04:56;;;;;;;1.62;0.60;;;15.60;56.30;;;;;;2395744;57;20995;-73
2023/04/22 00:07:22;;;;;;;1.70;0.70;;;15.40;56.10;;;;;;2178195;57;21017;-71
2023/04/22 00:09:48;;;;;;;1.27;0.62;;;15.50;56.20;;;;;;2183478;58;21056;-73
2023/04/22 00:12:15;;;;;;;1.85;0.70;;;15.40;56.10;;;;;;2183029;58;21049;-70
2023/04/22 00:14:41;;;;;;;1.55;0.60;;;15.40;56.10;;;;;;2183399;58;21131;-72
2023/04/22 00:17:09;;;;;;;3.60;0.80;;;15.30;56.10;;;;;;2395765;57;21089;-73
2023/04/22 00:19:37;;;;;;;2.37;0.85;;;15.30;56.10;;;;;;2395255;57;21019;-73
2023/04/22 00:22:03;;;;;;;1.92;0.90;;;15.30;56.10;;;;;;2182855;58;20963;-71
2023/04/22 00:24:29;;;;;;;2.20;0.93;;;15.20;56.10;;;;;;2183059;58;20979;-72
2023/04/22 00:26:56;;;;;;;2.40;0.93;;;15.20;56.20;;;;;;2182077;58;20995;-73
2023/04/22 00:29:22;;;;;;;2.17;0.90;;;15.20;56.20;;;;;;2182508;58;22140;-72
2023/04/22 00:31:48;;;;;;;2.85;1.00;;;15.20;56.20;;;;;;2394976;57;21051;-72
2023/04/22 00:34:16;;;;;;;1.83;0.80;;;15.20;56.30;;;;;;2395257;57;21091;-71
2023/04/22 00:36:43;;;;;;;2.08;0.90;;;15.10;56.20;;;;;;2395033;57;21023;-73
2023/04/22 00:39:09;;;;;;;1.90;0.80;;;15.10;56.20;;;;;;2394950;57;21472;-73
2023/04/22 00:41:35;;;;;;;1.90;0.90;;;15.00;56.20;;;;;;2395238;57;21031;-73
2023/04/22 00:44:02;;;;;;;5.25;3.08;;;15.00;56.20;;;;;;2182577;58;20959;-72
2023/04/22 00:46:28;;;;;;;5.97;4.18;;;15.00;56.20;;;;;;2395020;57;20974;-73
2023/04/22 00:48:54;;;;;;;6.43;3.80;;;14.90;56.10;;;;;;2395138;57;21462;-73
2023/04/22 00:51:20;;;;;;;4.90;2.72;;;14.90;56.10;;;;;;2182533;58;21810;-71
2023/04/22 00:53:47;;;;;;;3.17;1.50;;;14.90;56.10;;;;;;2182474;58;20979;-71
2023/04/22 00:56:13;;;;;;;3.15;1.50;;;14.80;56.00;;;;;;2182527;58;21876;-73
2023/04/22 00:58:40;;;;;;;2.90;1.12;;;14.80;56.10;;;;;;2179876;57;21613;-73
2023/04/22 01:01:06;;;;;;;2.20;0.95;;;14.70;56.00;;;;;;2390549;57;20956;-71
2023/04/22 01:03:33;;;;;;;2.53;1.00;;;14.70;56.10;;;;;;2182977;58;20975;-72
2023/04/22 01:05:59;;;;;;;2.42;0.77;;;14.70;56.10;;;;;;2395133;57;20959;-72
2023/04/22 01:08:28;;;;;;;1.95;0.70;;;14.60;56.00;;;;;;2182385;58;21493;-71
2023/04/22 01:10:55;;;;;;;1.48;0.68;;;14.60;56.00;;;;;;2182733;59;21046;-72
2023/04/22 01:13:22;;;;;;;1.80;0.70;;;14.50;55.90;;;;;;2182489;58;21031;-72
2023/04/22 01:15:52;;;;;;;2.08;0.93;;;14.50;56.00;;;;;;2182655;58;21027;-72
2023/04/22 01:18:18;;;;;;;1.30;0.50;;;14.40;55.90;;;;;;2395239;57;21665;-72
2023/04/22 01:20:45;;;;;;;1.17;0.60;;;14.40;55.90;;;;;;2182734;58;20991;-73
2023/04/22 01:23:17;;;;;;;1.67;0.60;;;14.30;55.80;;;;;;2390702;57;21825;-72
2023/04/22 01:25:44;;;;;;;1.73;0.85;;;14.30;55.90;;;;;;2388912;57;21047;-72
2023/04/22 01:28:10;;;;;;;1.92;0.77;;;14.20;55.90;;;;;;2182517;58;21007;-72
2023/04/22 01:30:37;;;;;;;1.27;0.50;;;14.20;55.90;;;;;;2185277;58;21043;-73
2023/04/22 01:33:04;;;;;;;1.37;0.68;;;14.10;55.90;;;;;;2385213;57;20975;-71
2023/04/22 01:35:35;;;;;;;1.35;0.60;;;14.10;55.90;;;;;;2182132;58;21036;-72
2023/04/22 01:38:11;;;;;;;1.50;0.62;;;14.00;55.90;;;;;;2182636;58;20971;-72
2023/04/22 01:40:37;;;;;;;2.25;0.60;;;14.00;56.00;;;;;;2394937;57;21062;-72
2023/04/22 01:43:06;;;;;;;1.27;0.60;;;14.00;56.10;;;;;;2390572;57;21037;-71
2023/04/22 01:45:32;;;;;;;1.37;0.60;;;14.00;56.20;;;;;;2388233;57;21071;-73
2023/04/22 01:48:03;;;;;;;1.55;0.75;;;13.90;56.10;;;;;;2394793;57;21043;-72
2023/04/22 01:50:29;;;;;;;1.77;0.60;;;13.90;56.20;;;;;;2182446;58;21027;-73
2023/04/22 01:52:56;;;;;;;1.77;0.80;;;13.90;56.20;;;;;;2183072;58;20970;-73
2023/04/22 01:55:23;;;;;;;1.52;0.50;;;13.80;56.20;;;;;;2182134;58;21256;-71
2023/04/22 01:57:51;;;;;;;1.12;0.60;;;13.90;56.30;;;;;;2182810;58;21039;-72
2023/04/22 02:00:20;;;;;;;1.20;0.60;;;13.80;56.30;;;;;;2182527;58;21071;-71
2023/04/22 02:02:47;;;;;;;1.10;0.50;;;13.80;56.30;;;;;;2394197;57;21031;-72
2023/04/22 02:05:16;;;;;;;1.65;0.60;;;13.80;56.30;;;;;;2394485;57;21574;-72
2023/04/22 02:07:43;;;;;;;1.37;0.60;;;13.80;56.40;;;;;;2182793;58;20943;-71
2023/04/22 02:10:10;;;;;;;1.58;0.60;;;13.80;56.40;;;;;;2394988;57;20990;-73
2023/04/22 02:12:37;;;;;;;1.50;0.57;;;13.80;56.40;;;;;;2394196;57;21454;-73
2023/04/22 02:15:03;;;;;;;1.27;0.50;;;13.80;56.40;;;;;;2180657;57;21831;-72
2023/04/22 02:17:30;;;;;;;1.20;0.47;;;13.80;56.40;;;;;;2178126;57;20927;-73
2023/04/22 02:19:56;;;;;;;1.20;0.55;;;13.70;56.40;;;;;;2182826;58;20967;-73
2023/04/22 02:22:22;;;;;;;1.70;0.52;;;13.70;56.40;;;;;;2182703;58;20990;-73
2023/04/22 02:24:49;;;;;;;1.08;0.50;;;13.70;56.40;;;;;;2181884;57;21462;-71
2023/04/22 02:27:15;;;;;;;1.77;0.62;;;13.70;56.40;;;;;;2385139;57;22061;-71
2023/04/22 02:29:42;;;;;;;1.15;0.55;;;13.80;56.50;;;;;;2176854;57;21859;-72
2023/04/22 02:32:08;;;;;;;1.75;0.73;;;13.70;56.50;;;;;;2394717;57;21556;-72
2023/04/22 02:34:35;;;;;;;1.80;0.60;;;13.70;56.60;;;;;;2394509;57;20971;-73
2023/04/22 02:37:02;;;;;;;1.60;0.60;;;13.70;56.60;;;;;;2177822;57;20952;-72
2023/04/22 02:39:28;;;;;;;1.02;0.43;;;13.70;56.60;;;;;;2392564;57;20975;-71
2023/04/22 02:41:54;;;;;;;1.55;0.65;;;13.70;56.60;;;;;;2394757;57;21773;-72
2023/04/22 02:44:21;;;;;;;1.48;0.50;;;13.70;56.60;;;;;;2182049;58;20963;-72
2023/04/22 02:46:49;;;;;;;1.15;0.55;;;13.80;56.70;;;;;;2182354;58;21042;-73
2023/04/22 02:49:16;;;;;;;1.33;0.50;;;13.70;56.70;;;;;;2394888;57;20992;-72
2023/04/22 02:51:43;;;;;;;1.92;0.70;;;13.60;56.60;;;;;;2183644;58;20967;-73
2023/04/22 02:54:12;;;;;;;1.33;0.52;;;13.70;56.70;;;;;;2182358;58;21007;-72
2023/04/22 02:56:38;;;;;;;1.52;0.60;;;13.70;56.70;;;;;;2182501;57;21650;-72
2023/04/22 02:59:04;;;;;;;2.65;0.70;;;13.70;56.70;;;;;;2176350;57;21031;-73
2023/04/22 03:01:31;;;;;;;1.30;0.50;;;13.70;56.70;;;;;;2182450;58;20956;-73
2023/04/22 03:03:57;;;;;;;1.00;0.50;;;13.70;56.80;;;;;;2182294;58;20991;-70
2023/04/22 03:06:23;;;;;;;1.25;0.55;;;13.70;56.80;;;;;;2182413;58;21123;-70
2023/04/22 03:08:50;;;;;;;1.60;0.55;;;13.70;56.80;;;;;;2395019;57;20967;-71
2023/04/22 03:11:18;;;;;;;1.58;0.77;;;13.70;56.90;;;;;;2182430;58;20988;-73
2023/04/22 03:13:45;;;;;;;1.50;0.60;;;13.70;56.90;;;;;;2385200;57;21531;-73
2023/04/22 03:16:12;;;;;;;1.00;0.52;;;13.70;56.90;;;;;;2393542;57;21011;-71
2023/04/22 03:18:38;;;;;;;0.93;0.45;;;13.70;56.90;;;;;;2182301;58;21395;-73
2023/04/22 03:21:06;;;;;;;1.08;0.55;;;13.70;56.90;;;;;;2394450;57;20975;-72
2023/04/22 03:23:32;;;;;;;1.40;0.70;;;13.70;56.90;;;;;;2180155;57;21489;-72
2023/04/22 03:25:58;;;;;;;1.90;0.70;;;13.70;56.90;;;;;;2389445;57;21080;-71
2023/04/22 03:28:25;;;;;;;2.72;0.70;;;13.70;56.90;;;;;;2182324;58;21011;-73
2023/04/22 03:30:51;;;;;;;1.52;0.70;;;13.70;56.90;;;;;;2394805;57;21580;-73
2023/04/22 03:33:17;;;;;;;1.48;0.60;;;13.70;56.90;;;;;;2394468;57;21014;-72
2023/04/22 03:35:47;;;;;;;2.97;1.08;;;13.70;56.90;;;;;;2181756;58;20987;-71
2023/04/22 03:38:15;;;;;;;7.78;2.28;;;13.70;56.90;;;;;;2182547;58;22168;-73
2023/04/22 03:40:42;;;;;;;10.85;3.97;;;13.70;56.80;;;;;;2394531;57;21006;-71
2023/04/22 03:43:08;;;;;;;10.38;3.60;;;13.70;56.70;;;;;;2394589;57;21035;-72
2023/04/22 03:45:36;;;;;;;7.53;3.30;;;13.60;56.60;;;;;;2182219;58;21024;-73
2023/04/22 03:48:02;;;;;;;7.95;2.47;;;13.60;56.60;;;;;;2182323;58;21757;-73
2023/04/22 03:50:28;;;;;;;5.85;2.08;;;13.60;56.60;;;;;;2394631;57;21010;-73
2023/04/22 03:52:55;;;;;;;4.80;1.75;;;13.60;56.60;;;;;;2182572;58;21071;-73
2023/04/22 03:55:21;;;;;;;3.42;1.25;;;13.50;56.50;;;;;;2394604;57;21716;-71
2023/04/22 03:57:48;;;;;;;2.55;1.10;;;13.50;56.50;;;;;;2394777;57;22056;-73
2023/04/22 04:00:14;;;;;;;2.25;0.77;;;13.50;56.60;;;;;;2180071;57;21100;-72
2023/04/22 04:02:41;;;;;;;2.33;0.70;;;13.40;56.60;;;;;;2181601;57;20999;-72
2023/04/22 04:05:09;;;;;;;1.95;0.80;;;13.40;56.60;;;;;;2394656;57;20959;-73
2023/04/22 04:07:36;;;;;;;2.62;1.00;;;13.40;56.70;;;;;;2182217;58;20968;-73
2023/04/22 04:10:03;;;;;;;1.85;0.85;;;13.40;56.80;;;;;;2182160;58;21970;-71
2023/04/22 04:12:29;;;;;;;1.90;0.88;;;13.30;56.80;;;;;;2176266;57;20972;-73
2023/04/22 04:14:55;;;;;;;1.73;0.80;;;13.30;56.90;;;;;;2183146;57;21138;-72
2023/04/22 04:17:24;;;;;;;1.92;0.80;;;13.30;56.90;;;;;;2384399;57;21068;-71
2023/04/22 04:19:53;;;;;;;1.83;0.75;;;13.30;57.00;;;;;;2182056;57;21111;-72
2023/04/22 04:22:20;;;;;;;2.05;0.70;;;13.30;57.00;;;;;;2179294;58;21092;-72
2023/04/22 04:24:46;;;;;;;6.10;0.80;;;13.30;57.70;;;;;;2179339;57;21704;-72
2023/04/22 04:27:13;;;;;;;2.22;0.90;;;13.30;57.10;;;;;;2182616;58;21023;-72
2023/04/22 04:29:40;;;;;;;1.85;0.75;;;13.30;57.00;;;;;;2182094;58;21037;-72
2023/04/22 04:32:09;;;;;;;1.50;0.73;;;13.30;57.00;;;;;;2394675;57;20971;-73
2023/04/22 04:34:38;;;;;;;2.20;1.00;;;13.20;57.50;;;;;;2182230;58;20999;-72
2023/04/22 04:37:05;;;;;;;3.75;1.00;;;13.20;57.00;;;;;;2182234;58;21044;-72
2023/04/22 04:39:32;;;;;;;2.40;1.00;;;13.20;57.00;;;;;;2183613;57;20987;-71
2023/04/22 04:41:59;;;;;;;2.10;1.00;;;13.20;57.10;;;;;;2182374;58;20971;-72
2023/04/22 04:44:26;;;;;;;5.20;1.55;;;13.20;57.10;;;;;;2182479;58;20982;-71
2023/04/22 04:46:53;;;;;;;3.53;1.40;;;13.20;57.20;;;;;;2182365;58;20979;-73
2023/04/22 04:49:19;;;;;;;3.50;1.50;;;13.20;57.20;;;;;;2182637;58;21011;-73
2023/04/22 04:51:46;;;;;;;2.15;1.00;;;13.20;57.20;;;;;;2394281;57;21848;-70
2023/04/22 04:54:12;;;;;;;3.03;1.30;;;13.20;57.30;;;;;;2395198;57;20971;-72
2023/04/22 04:56:38;;;;;;;2.50;1.00;;;13.20;57.30;;;;;;2180481;57;20981;-72
2023/04/22 04:59:04;;;;;;;2.37;0.95;;;13.20;57.30;;;;;;2180246;57;21043;-72
2023/04/22 05:01:30;;;;;;;4.62;0.80;;;13.20;57.90;;;;;;2394740;57;21008;-72
2023/04/22 05:03:57;;;;;;;2.40;1.00;;;13.10;57.30;;;;;;2394828;57;21014;-73
2023/04/22 05:06:23;;;;;;;2.80;1.12;;;13.20;57.30;;;;;;2395027;57;21047;-73
2023/04/22 05:08:49;;;;;;;2.05;0.73;;;13.20;57.40;;;;;;2182120;58;20983;-72
2023/04/22 05:11:15;;;;;;;2.47;0.90;;;13.20;58.00;;;;;;2394983;57;20983;-73
2023/04/22 05:13:42;;;;;;;1.67;0.70;;;13.10;57.30;;;;;;2182602;58;20960;-72
2023/04/22 05:16:08;;;;;;;1.50;0.70;;;13.10;57.30;;;;;;2182675;58;22023;-71
2023/04/22 05:18:35;;;;;;;1.60;0.70;;;13.10;57.40;;;;;;2182761;58;20999;-71
2023/04/22 05:21:03;;;;;;;1.40;0.70;;;13.10;57.40;;;;;;2182344;58;20974;-73
2023/04/22 05:23:29;;;;;;;1.90;0.80;;;13.10;57.40;;;;;;2385211;57;21045;-72
2023/04/22 05:25:56;;;;;;;2.28;0.90;;;13.10;57.40;;;;;;2386915;57;20985;-72
2023/04/22 05:28:23;;;;;;;1.92;0.70;;;13.10;57.50;;;;;;2391119;57;21057;-72
2023/04/22 05:30:50;;;;;;;1.25;0.60;;;13.10;57.50;;;;;;2182466;58;21023;-72
2023/04/22 05:33:16;;;;;;;1.40;0.60;;;13.10;57.60;;;;;;2393787;57;20987;-71
2023/04/22 05:35:43;;;;;;;3.70;1.00;;;13.10;57.60;;;;;;2174442;57;21055;-72
2023/04/22 05:38:10;;;;;;;3.47;1.75;;;13.20;57.70;;;;;;2182501;58;20986;-72
2023/04/22 05:40:36;;;;;;;2.92;1.40;;;13.20;57.70;;;;;;2182063;58;21015;-73
2023/04/22 05:43:03;;;;;;;3.15;1.23;;;13.20;57.80;;;;;;2394494;57;21019;-73
2023/04/22 05:45:29;;;;;;;2.67;1.30;;;13.20;57.80;;;;;;2182336;58;21071;-72
2023/04/22 05:47:55;;;;;;;3.20;1.20;;;13.20;57.80;;;;;;2394251;57;20959;-73
2023/04/22 05:50:25;;;;;;;2.20;0.90;;;13.20;57.90;;;;;;2182341;58;21059;-72
2023/04/22 05:52:51;;;;;;;2.08;0.93;;;13.20;57.90;;;;;;2182162;58;21889;-72
2023/04/22 05:55:17;;;;;;;1.90;0.70;;;13.20;57.90;;;;;;2395002;57;21059;-71
2023/04/22 05:57:46;;;;;;;2.53;0.82;;;13.20;57.90;;;;;;2392914;57;21012;-72
2023/04/22 06:00:13;;;;;;;2.55;0.80;;;13.30;58.10;;;;;;2394543;57;21036;-71
2023/04/22 06:02:40;;;;;;;1.33;0.70;;;13.30;58.10;;;;;;2180254;57;21713;-72
2023/04/22 06:05:07;;;;;;;2.08;1.00;;;13.30;58.70;;;;;;2178240;57;20983;-73
2023/04/22 06:07:36;;;;;;;1.58;0.70;;;13.30;58.30;;;;;;2182663;58;21000;-73
2023/04/22 06:10:03;;;;;;;2.00;1.00;;;13.30;58.40;;;;;;2394657;57;21039;-73
2023/04/22 06:12:32;;;;;;;2.78;1.20;;;13.40;58.40;;;;;;2384810;57;21101;-72
2023/04/22 06:14:58;;;;;;;2.75;0.95;;;13.40;58.50;;;;;;2393449;57;21118;-73
2023/04/22 06:17:25;;;;;;;2.08;1.00;;;13.40;58.50;;;;;;2394305;57;21095;-73
2023/04/22 06:19:51;;;;;;;2.15;0.93;;;13.50;58.60;;;;;;2182208;58;21092;-73
2023/04/22 06:22:17;;;;;;;2.72;1.20;;;13.50;58.60;;;;;;2182008;58;21014;-74
2023/04/22 06:24:44;;;;;;;2.08;1.05;;;13.50;58.70;;;;;;2182079;58;20971;-72
2023/04/22 06:27:13;;;;;;;2.67;1.20;;;13.50;58.70;;;;;;2182458;58;21127;-73
2023/04/22 06:29:43;;;;;;;4.30;1.67;;;13.60;58.90;;;;;;2181885;58;21460;-72
2023/04/22 06:32:09;;;;;;;2.20;1.10;;;13.70;59.00;;;;;;2394455;57;21881;-73
2023/04/22 06:34:37;;;;;;;3.92;1.40;;;13.70;59.00;;;;;;2182178;58;20995;-72
2023/04/22 06:37:04;;;;;;;2.17;1.00;;;13.80;59.20;;;;;;2387413;57;21890;-72
2023/04/22 06:39:30;;;;;;;2.53;1.12;;;13.80;59.20;;;;;;2392267;57;20978;-75
2023/04/22 06:41:57;;;;;;;2.40;1.10;;;13.90;59.30;;;;;;2392632;57;21029;-73
2023/04/22 06:44:24;;;;;;;2.00;1.08;;;14.00;59.50;;;;;;2180076;57;21108;-74
2023/04/22 06:46:51;;;;;;;2.42;1.10;;;14.00;59.50;;;;;;2176214;57;20998;-72
2023/04/22 06:49:17;;;;;;;2.40;1.08;;;14.10;59.70;;;;;;2385807;57;21007;-73
2023/04/22 06:51:43;;;;;;;2.58;1.37;;;14.20;59.80;;;;;;2388605;57;20977;-74
2023/04/22 06:54:10;;;;;;;2.62;1.30;;;14.30;60.00;;;;;;2178514;57;20951;-74
2023/04/22 06:56:36;;;;;;;3.42;1.75;;;14.40;60.10;;;;;;2394300;57;21480;-70
2023/04/22 06:59:03;;;;;;;3.58;1.77;;;14.50;60.20;;;;;;2394259;57;20992;-74
2023/04/22 07:01:30;;;;;;;4.87;2.20;;;14.60;60.20;;;;;;2394653;57;21404;-70
2023/04/22 07:03:56;;;;;;;3.55;1.95;;;14.80;60.30;;;;;;2394181;57;21770;-72
2023/04/22 07:06:23;;;;;;;3.83;2.22;;;14.90;60.50;;;;;;2394571;57;21022;-73
2023/04/22 07:08:50;;;;;;;3.25;1.67;;;15.00;60.60;;;;;;2182193;58;21067;-72
2023/04/22 07:11:16;;;;;;;4.68;1.80;;;15.20;60.80;;;;;;2394697;57;20999;-75
2023/04/22 07:13:42;;;;;;;4.20;1.80;;;15.30;60.90;;;;;;2394235;57;20939;-72
2023/04/22 07:16:09;;;;;;;3.50;1.85;;;15.50;61.10;;;;;;2394479;57;21036;-72
2023/04/22 07:18:35;;;;;;;2.83;1.55;;;15.60;61.10;;;;;;2394404;57;20975;-70
2023/04/22 07:21:02;;;;;;;3.40;1.90;;;15.80;61.30;;;;;;2181643;58;21015;-74
2023/04/22 07:23:28;;;;;;;5.00;2.05;;;15.90;61.40;;;;;;2394498;57;20986;-72
2023/04/22 07:25:57;;;;;;;3.80;1.95;;;16.10;61.70;;;;;;2394098;57;21082;-72
2023/04/22 07:28:23;;;;;;;3.90;1.92;;;16.30;61.80;;;;;;2182365;58;21043;-72
2023/04/22 07:30:53;;;;;;;4.20;2.08;;;16.50;62.00;;;;;;2181983;57;20991;-71
2023/04/22 07:33:22;;;;;;;3.80;1.92;;;16.70;62.10;;;;;;2394608;57;20983;-71
2023/04/22 07:35:48;;;;;;;3.78;1.95;;;16.90;62.10;;;;;;2394085;57;21031;-74
2023/04/22 07:38:15;;;;;;;5.55;2.45;;;17.10;62.00;;;;;;2182476;57;21041;-71
2023/04/22 07:40:43;;;;;;;4.47;2.45;;;17.30;62.00;;;;;;2387337;57;20979;-72
2023/04/22 07:43:11;;;;;;;4.25;2.30;;;17.50;61.90;;;;;;2184530;58;21548;-73
2023/04/22 07:45:37;;;;;;;5.97;2.72;;;17.70;61.90;;;;;;2384829;57;21027;-72
2023/04/22 07:48:04;;;;;;;4.90;2.30;;;17.90;61.90;;;;;;2181745;58;21708;-73
2023/04/22 07:50:35;;;;;;;4.72;2.60;;;18.20;61.80;;;;;;2181766;57;21581;-73
2023/04/22 07:53:03;;;;;;;4.43;2.08;;;18.30;61.40;;;;;;2179206;57;20979;-71
2023/04/22 07:55:29;;;;;;;3.47;1.87;;;18.50;61.30;;;;;;2394616;57;21035;-72
2023/04/22 07:57:56;;;;;;;3.80;2.15;;;18.70;61.30;;;;;;2182453;58;21007;-72
2023/04/22 08:00:22;;;;;;;3.83;1.80;;;18.80;60.80;;;;;;2182447;58;20959;-71
2023/04/22 08:02:48;;;;;;;3.42;1.92;;;19.00;60.50;;;;;;2394118;57;20975;-72
2023/04/22 08:05:15;;;;;;;3.55;2.20;;;19.10;60.00;;;;;;2181266;57;21048;-72
2023/04/22 08:07:45;;;;;;;4.57;2.22;;;19.30;59.70;;;;;;2390220;57;21106;-72
2023/04/22 08:10:14;;;;;;;5.18;2.75;;;19.40;59.70;;;;;;2182597;58;20990;-72
2023/04/22 08:12:43;;;;;;;4.25;2.30;;;19.50;59.40;;;;;;2182500;58;21015;-71
2023/04/22 08:15:10;;;;;;;3.60;2.30;;;19.60;59.40;;;;;;2182185;58;21531;-74
2023/04/22 08:17:38;;;;;;;4.05;2.40;;;19.70;59.60;;;;;;2395412;57;21050;-71
2023/04/22 08:20:05;;;;;;;3.47;2.00;;;19.80;59.30;;;;;;2395803;57;21098;-73
2023/04/22 08:22:34;;;;;;;3.30;2.00;;;19.90;59.20;;;;;;2185541;58;20997;-72
2023/04/22 08:25:01;;;;;;;3.65;1.90;;;20.00;59.10;;;;;;2176947;57;20995;-72
2023/04/22 08:27:27;;;;;;;7.32;2.28;;;20.20;58.90;;;;;;2183793;57;21417;-73
2023/04/22 08:29:54;;;;;;;3.83;1.90;;;20.20;58.70;;;;;;2183536;57;20993;-76
2023/04/22 08:32:23;;;;;;;3.50;1.83;;;20.30;58.50;;;;;;2182646;57;20998;-73
2023/04/22 08:34:51;;;;;;;2.97;1.70;;;20.40;58.40;;;;;;2397025;57;20972;-72
2023/04/22 08:37:19;;;;;;;3.05;1.62;;;20.50;58.10;;;;;;2184990;58;21377;-74
2023/04/22 08:39:45;;;;;;;4.30;2.08;;;20.60;58.00;;;;;;2396456;57;20951;-72
2023/04/22 08:42:12;;;;;;;2.90;1.60;;;20.60;58.00;;;;;;2184493;58;21028;-74
2023/04/22 08:44:39;;;;;;;3.35;1.98;;;20.70;58.00;;;;;;2183999;58;21047;-74
2023/04/22 08:47:05;;;;;;;3.70;2.00;;;20.80;58.10;;;;;;2395776;57;20995;-72
2023/04/22 08:49:32;;;;;;;3.30;1.95;;;20.90;58.10;;;;;;2396468;57;21067;-73
2023/04/22 08:51:58;;;;;;;3.45;2.10;;;21.00;58.10;;;;;;2183895;58;20978;-73
2023/04/22 08:54:24;;;;;;;3.25;1.95;;;21.00;57.80;;;;;;2396234;57;21053;-72
2023/04/22 08:56:52;;;;;;;4.57;1.80;;;21.10;57.90;;;;;;2395074;57;21051;-73
2023/04/22 08:59:19;;;;;;;3.40;2.00;;;21.20;57.90;;;;;;2183489;58;21481;-73
2023/04/22 09:01:45;;;;;;;3.47;1.85;;;21.30;57.70;;;;;;2395865;57;21837;-73
2023/04/22 09:04:13;;;;;;;3.85;2.00;;;21.40;57.50;;;;;;2183435;58;21531;-72
2023/04/22 09:06:42;;;;;;;3.58;1.95;;;21.50;57.10;;;;;;2396007;57;20986;-74
2023/04/22 09:09:08;;;;;;;4.30;2.03;;;21.60;57.20;;;;;;2182932;58;21527;-73
2023/04/22 09:11:36;;;;;;;4.07;1.95;;;21.60;57.30;;;;;;2182982;57;21033;-73
2023/04/22 09:14:03;;;;;;;3.80;1.87;;;21.70;57.30;;;;;;2389950;57;20983;-72
2023/04/22 09:16:30;;;;;;;4.82;2.47;;;21.80;57.60;;;;;;2183546;58;21070;-74
2023/04/22 09:18:57;;;;;;;3.25;1.87;;;21.90;57.70;;;;;;2395638;57;20978;-74
2023/04/22 09:21:28;;;;;;;3.33;1.83;;;22.00;57.80;;;;;;2182854;58;21023;-74
2023/04/22 09:23:55;;;;;;;3.42;2.10;;;22.10;57.50;;;;;;2395945;57;21030;-73
2023/04/22 09:26:23;;;;;;;4.15;2.00;;;22.20;57.50;;;;;;2182682;58;20978;-73
2023/04/22 09:28:57;;;;;;;3.85;2.12;;;22.40;57.40;;;;;;2394586;57;21767;-73
2023/04/22 09:31:24;;;;;;;5.80;1.90;;;22.50;56.90;;;;;;2394964;57;20971;-74
2023/04/22 09:33:52;;;;;;;3.37;2.08;;;22.70;57.40;;;;;;2181714;57;21887;-75
2023/04/22 09:36:24;;;;;;;5.50;2.47;;;22.70;57.20;;;;;;2388669;57;22001;-76
2023/04/22 09:38:54;;;;;;;3.20;1.83;;;22.90;57.20;;;;;;2182464;58;20970;-73
2023/04/22 09:41:29;;;;;;;5.75;2.30;;;23.00;57.00;;;;;;2395064;57;21035;-72
2023/04/22 09:43:59;;;;;;;4.35;2.35;;;23.10;56.80;;;;;;2182757;57;21032;-75
2023/04/22 09:46:26;;;;;;;3.80;1.80;;;23.20;56.10;;;;;;2387117;57;21702;-71
2023/04/22 09:48:59;;;;;;;4.07;2.05;;;23.30;55.70;;;;;;2182303;58;21080;-72
2023/04/22 09:51:26;;;;;;;3.90;1.80;;;23.50;54.90;;;;;;2395267;57;21487;-75
2023/04/22 09:54:00;;;;;;;3.37;2.03;;;23.50;55.00;;;;;;2182507;58;21406;-73
2023/04/22 09:56:48;;;;;;;2.80;1.73;;;23.60;53.90;;;;;;2182590;58;21046;-72
2023/04/22 09:59:22;;;;;;;2.95;1.62;;;23.70;53.30;;;;;;2395532;57;21853;-73
2023/04/22 10:01:54;;;;;;;2.90;1.55;;;23.80;53.60;;;;;;2323480;57;1742354;-71
2023/04/22 10:04:22;;;;;;;4.43;2.17;;;23.90;53.50;;;;;;2395339;57;20987;-73
2023/04/22 10:06:51;;;;;;;3.50;1.75;;;23.90;53.50;;;;;;2182985;58;21047;-73
2023/04/22 10:09:18;;;;;;;2.55;1.40;;;23.90;53.30;;;;;;2183044;58;21023;-72
2023/04/22 10:11:44;;;;;;;3.55;1.67;;;24.10;53.10;;;;;;2395227;57;21043;-74
2023/04/22 10:14:12;;;;;;;3.50;1.73;;;24.00;52.80;;;;;;2394617;57;20972;-71
2023/04/22 10:16:39;;;;;;;2.70;1.15;;;24.10;52.60;;;;;;2395238;57;20995;-73
2023/04/22 10:19:06;;;;;;;3.45;1.35;;;24.10;52.60;;;;;;2386924;57;21068;-72
2023/04/22 10:21:32;;;;;;;3.67;1.40;;;24.10;51.80;;;;;;2181124;57;20955;-76
2023/04/22 10:23:59;;;;;;;3.05;1.23;;;24.20;51.40;;;;;;2394764;57;21099;-71
2023/04/22 10:26:41;;;;;;;2.20;1.10;;;24.20;51.30;;;;;;2389583;57;20992;-70
2023/04/22 10:29:09;;;;;;;;;;;24.30;49.70;;;;;;2396012;57;20999;-70
2023/04/22 10:31:38;;;;;;;2.37;1.10;;;24.40;50.60;;;;;;2395221;57;20121;-70
2023/04/22 10:34:09;;;;;;;1.98;0.85;;;24.50;51.50;;;;;;2394780;57;20987;-70
2023/04/22 10:36:51;;;;;;;2.08;0.85;;;24.50;51.60;;;;;;2391361;57;21017;-72
2023/04/22 10:39:20;;;;;;;2.15;1.10;;;24.60;50.40;;;;;;2384891;57;21084;-70
2023/04/22 10:42:06;;;;;;;2.87;1.00;;;24.70;51.60;;;;;;2182670;57;20971;-72
2023/04/22 10:45:01;;;;;;;2.10;0.95;;;24.90;50.00;;;;;;2395212;57;20909;-70
2023/04/22 10:47:34;;;;;;;2.08;0.80;;;25.00;49.50;;;;;;2182391;57;21455;-73
2023/04/22 10:50:25;;;;;;;1.80;0.77;;;25.10;50.10;;;;;;2388612;57;21047;-70
2023/04/22 10:52:59;;;;;;;2.45;0.82;;;25.20;49.20;;;;;;2395133;57;21898;-71
2023/04/22 10:55:28;;;;;;;3.42;0.90;;;25.20;49.60;;;;;;2395136;57;21051;-70
2023/04/22 10:57:54;;;;;;;2.10;0.90;;;25.20;49.70;;;;;;2182908;58;20967;-73
2023/04/22 11:00:31;;;;;;;2.20;1.10;;;25.30;49.50;;;;;;2394897;57;20987;-68
2023/04/22 11:03:11;;;;;;;1.80;0.90;;;25.40;48.20;;;;;;2394686;57;20983;-73
2023/04/22 11:05:40;;;;;;;2.22;1.05;;;25.50;48.70;;;;;;2394234;57;21043;-69
2023/04/22 11:08:11;;;;;;;2.62;1.10;;;25.50;49.30;;;;;;2394834;57;21810;-71
2023/04/22 11:10:44;;;;;;;2.58;1.00;;;25.60;48.80;;;;;;2182875;58;20943;-70
2023/04/22 11:13:13;;;;;;;1.95;0.80;;;25.60;48.20;;;;;;2179353;57;20957;-73
2023/04/22 11:15:42;;;;;;;2.90;1.00;;;25.70;48.60;;;;;;2392756;57;21455;-71
2023/04/22 11:18:10;;;;;;;2.42;0.90;;;25.70;48.60;;;;;;2394677;57;21035;-70
2023/04/22 11:20:37;;;;;;;1.80;0.80;;;25.80;48.40;;;;;;2395430;57;20982;-76
2023/04/22 11:23:07;;;;;;;2.20;0.90;;;25.90;48.30;;;;;;2394492;57;21014;-71
2023/04/22 11:25:33;;;;;;;2.67;0.98;;;25.90;48.20;;;;;;2182898;58;21031;-72
2023/04/22 11:28:00;;;;;;;3.25;1.00;;;26.00;48.00;;;;;;2394228;57;21011;-71
2023/04/22 11:30:27;;;;;;;2.00;0.75;;;26.00;47.50;;;;;;2181469;58;21069;-70
2023/04/22 11:32:54;;;;;;;2.55;1.02;;;26.00;47.60;;;;;;2171773;59;21059;-70
2023/04/22 11:35:25;;;;;;;2.10;0.90;;;26.00;47.50;;;;;;2182272;57;21311;-72
2023/04/22 11:38:02;;;;;;;3.85;1.08;;;26.00;47.30;;;;;;2395258;57;20991;-70
2023/04/22 11:40:30;;;;;;;2.85;1.15;;;26.00;46.00;;;;;;2183081;58;21003;-70
2023/04/22 11:42:59;;;;;;;2.22;0.93;;;26.00;46.50;;;;;;2388896;57;21109;-71
2023/04/22 11:45:25;;;;;;;2.08;0.98;;;26.00;46.20;;;;;;2386153;57;21500;-70
2023/04/22 11:47:55;;;;;;;3.65;0.95;;;26.00;46.00;;;;;;2395305;57;21043;-71
2023/04/22 11:50:25;;;;;;;3.15;1.05;;;25.90;45.60;;;;;;2395441;57;21055;-69
2023/04/22 11:52:53;;;;;;;2.28;0.70;;;25.90;44.80;;;;;;2182806;58;21059;-72
2023/04/22 11:55:56;;;;;;;2.72;0.95;;;25.80;45.00;;;;;;2179938;57;21329;-69
2023/04/22 11:58:26;;;;;;;2.60;1.00;;;25.80;45.00;;;;;;2394571;57;21107;-70
2023/04/22 12:00:56;;;;;;;3.17;0.82;;;25.70;45.10;;;;;;2395703;57;21122;-72
2023/04/22 12:03:29;;;;;;;2.72;1.08;;;25.70;45.10;;;;;;2394704;57;21142;-69
2023/04/22 12:06:00;;;;;;;3.30;1.10;;;25.60;44.80;;;;;;2393846;57;21354;-69
2023/04/22 12:08:40;;;;;;;1.67;0.82;;;25.60;44.30;;;;;;2183445;58;21042;-72
2023/04/22 12:11:10;;;;;;;2.00;0.90;;;25.60;44.30;;;;;;2181833;58;21006;-70
2023/04/22 12:13:46;;;;;;;1.98;0.80;;;25.50;44.80;;;;;;2182663;58;21027;-75
2023/04/22 12:16:18;;;;;;;2.90;0.90;;;25.50;44.50;;;;;;2394622;57;20956;-71
2023/04/22 12:18:51;;;;;;;;;;;25.50;44.50;;;;;;2399043;57;21067;-69
2023/04/22 12:21:20;;;;;;;2.40;0.90;;;25.50;44.90;;;;;;2382083;58;20069;-69
2023/04/22 12:24:03;;;;;;;2.03;0.75;;;25.50;45.30;;;;;;2394748;57;21011;-68
2023/04/22 12:26:30;;;;;;;2.42;0.90;;;25.50;44.30;;;;;;2394640;57;20986;-70
2023/04/22 12:28:57;;;;;;;2.35;1.00;;;25.50;44.70;;;;;;2394896;57;21048;-70
2023/04/22 12:31:23;;;;;;;3.97;0.90;;;25.40;44.50;;;;;;2385954;57;20992;-74
2023/04/22 12:33:50;;;;;;;2.10;0.95;;;25.40;44.40;;;;;;2179559;57;20955;-70
2023/04/22 12:36:19;;;;;;;3.70;1.25;;;25.40;44.40;;;;;;2389940;57;20985;-68
2023/04/22 12:38:46;;;;;;;2.65;0.82;;;25.40;43.90;;;;;;2389993;57;21007;-69
2023/04/22 12:41:14;;;;;;;3.22;1.02;;;25.40;43.90;;;;;;2387767;57;21088;-72
2023/04/22 12:43:40;;;;;;;3.90;1.45;;;25.40;44.00;;;;;;2182660;57;21014;-73
2023/04/22 12:46:07;;;;;;;2.92;1.08;;;25.40;43.90;;;;;;2393778;57;21845;-72
2023/04/22 12:48:37;;;;;;;4.43;1.17;;;25.30;43.90;;;;;;2182890;58;21456;-72
2023/04/22 12:51:04;;;;;;;2.90;1.00;;;25.40;43.80;;;;;;2394261;57;20998;-72